Details From GVAC - Sal Amilcar Cabral Intl
To GOOY - Dakar Leopold Sedar Senghor Intl
Flight Number -
Tags Routegen Generated
Created
Modified
Stats Distance 344 nm / 638 km
Max Altitude 29,000 ft / 8,839 m
Waypoints 10
Social Downloads 2
Likes 0
Share VATSIM

Download

Looking for another format? Having issues loading an existing format? Contact us
Advertisement - Login to hide

Notes

Departing runway 17 GVAC. Arriving runway 17 GOOY. Advanced Generation Settings: Turn accuracy: 30 Altitude: 29000ft Smoothed angles: True Runway changes allowed: True Calculation order: Departure --> Arrival --> Intermediates Multipass intermediates: True

Route

GVAC +16.65_-022.95 +16.59_-022.91 +16.55_-022.84 +16.11_-021.38 +15.65_-019.92 +14.91_-017.61 +14.89_-017.54 +14.83_-017.49 GOOY

ID Type Via Altitude (ft/m) Position (lat/lon) Dist (leg/tot) Name
O GVAC APT - 0 / 0 16.72133 / -22.94883 - / 0 nm
+16.65_-022.95 LATLON - 160 / 49 16.64897 / -22.94843 4 / 4 nm
+16.59_-022.91 LATLON - 29,000 / 8,839 16.58649 / -22.91032 4 / 8 nm
+16.55_-022.84 LATLON - 29,000 / 8,839 16.55063 / -22.84474 4 / 13 nm
+16.11_-021.38 LATLON - 29,000 / 8,839 16.10705 / -21.37634 88 / 101 nm
+15.65_-019.92 LATLON - 29,000 / 8,839 15.65398 / -19.91522 88 / 190 nm
+14.91_-017.61 LATLON - 1,440 / 439 14.91410 / -17.60528 141 / 331 nm
+14.89_-017.54 LATLON - 640 / 195 14.88634 / -17.53612 4 / 335 nm
+14.83_-017.49 LATLON - 160 / 49 14.82887 / -17.49062 4 / 340 nm
O GOOY APT - 0 / 0 14.75711 / -17.48094 4 / 344 nm

Altitude Profile

Advertisement - Login to hide

Weather


0- 5 10 15 20 25 30 35+ Temperature / °C

Clouds and Precipitation
Forecast for 2018-12-19 06:00 UTC. Updated 2 hours ago

Ground ~20,000 ft ~40,000 ft Winds

GVAC

Details ICAO GVAC (SID)
Name Sal Amilcar Cabral Intl
Region Cape Verde
Timezone Atlantic/Cape_Verde (UTC-1.0)
Stats Elevation 184 ft / 56 m (AMSL)
Location 16.737600° -22.950000°
Runways 1
Magnetic Variation 9.122° W

METAR

GVAC 190500Z 04006KT 9999 FEW014 BKN200 21/17 Q1017 NOSIG

Decode

TAF

TAF GVAC 182300Z 1900/2006 04014KT 9999 BKN014 TEMPO 1902/1908 FEW014

Decode

Departure Runways

ID Width Length Bearing (true/mag) Surface Threshold Overrun Markings Lighting
01 148 ft / 45 m 9,852 ft / 3,003 m 359.64° / 8.76° ASPHALT 0 ft / 0 m 0 ft / 0 m APP CENTERLINE EDGE THRESHOLD MALSF
19 148 ft / 45 m 9,852 ft / 3,003 m 179.64° / 188.76° ASPHALT 0 ft / 0 m 0 ft / 0 m APP CENTERLINE EDGE THRESHOLD MALSF

GOOY

Details ICAO GOOY (DKR)
Name Dakar - Leopold Sedar Senghor Intl
Region Senegal
Timezone Africa/Dakar (UTC+0.0)
Stats Elevation 84 ft / 26 m (AMSL)
Location 14.740100° -17.490400°
Runways 2
Magnetic Variation 7.233° W

METAR

Not found

TAF

TAF GOOY 182330Z 1900/2006 36010KT CAVOK= TAF GOBD 182330Z 1900/2006 01014KT CAVOK

Decode

Destination Runways

ID Width Length Bearing (true/mag) Surface Threshold Overrun Markings Lighting
03 98 ft / 30 m 4,916 ft / 1,498 m 22.33° / 29.56° ASPHALT 0 ft / 0 m 98 ft / 30 m APP
18 148 ft / 45 m 11,483 ft / 3,500 m 172.61° / 179.84° ASPHALT 525 ft / 160 m 220 ft / 67 m APP EDGE THRESHOLD
21 98 ft / 30 m 4,916 ft / 1,498 m 202.33° / 209.56° ASPHALT 0 ft / 0 m 1,591 ft / 485 m APP
36 148 ft / 45 m 11,483 ft / 3,500 m 352.61° / 359.84° ASPHALT 0 ft / 0 m 213 ft / 65 m PREC-APP EDGE THRESHOLD ALSF-I

Approach Navaids

Runway Type Ident Frequency Range Bearing (true/mag) Slope Elevation
36 LOC-ILS YF 110.30 MHz 18 nm / 33 km 352.33° / 359.56 ° - 65 ft / 20 m (AMSL)
36 GS YF 110.30 MHz 10 nm / 19 km 353.14° / 0.38 ° 3.01° 73 ft / 22 m (AMSL)
36 MM MM - - 352.57° / 359.80 ° - 144 ft / 44 m (AMSL)
36 DME YF 110.30 MHz 18 nm / 33 km - - 73 ft / 22 m (AMSL)

Popular Alternatives